Time;durP1;ratioP1;P1;durP2;ratioP2;P2;SDS_P1;SDS_P2;PMS_P1;PMS_P2;Temp;Humidity;BMP_temperature;BMP_pressure;BME280_temperature;BME280_humidity;BME280_pressure;Samples;Min_cycle;Max_cycle;Signal;HPM_P1;HPM_P2
2023/01/01 00:01:10;;;;;;;32.83;29.53;;;14.70;32.10;;;;;;5107127;27;20782;-51
2023/01/01 00:03:36;;;;;;;32.40;25.53;;;14.70;32.30;;;;;;5100025;27;20182;-53
2023/01/01 00:06:10;;;;;;;25.90;23.50;;;14.70;32.20;;;;;;5079003;28;20415;-54
2023/01/01 00:08:36;;;;;;;25.37;21.63;;;14.70;32.20;;;;;;5080581;28;20229;-53
2023/01/01 00:11:03;;;;;;;24.00;21.50;;;14.70;32.30;;;;;;5082326;27;20412;-52
2023/01/01 00:13:29;;;;;;;21.67;19.63;;;14.70;32.10;;;;;;5081814;27;20416;-53
2023/01/01 00:15:55;;;;;;;22.43;20.40;;;14.70;32.20;;;;;;5084229;28;21172;-57
2023/01/01 00:18:20;;;;;;;20.50;18.70;;;14.60;32.40;;;;;;5080997;27;20271;-57
2023/01/01 00:20:46;;;;;;;19.63;17.97;;;14.60;32.50;;;;;;5088954;28;20196;-57
2023/01/01 00:23:11;;;;;;;19.00;16.47;;;14.60;32.40;;;;;;5095210;27;20187;-57
2023/01/01 00:25:39;;;;;;;17.80;16.10;;;14.70;32.50;;;;;;5100097;28;20178;-58
2023/01/01 00:28:06;;;;;;;18.23;16.13;;;14.60;32.40;;;;;;5096342;27;20205;-57
2023/01/01 00:30:31;;;;;;;18.73;16.77;;;14.60;32.50;;;;;;5093050;27;20411;-50
2023/01/01 00:32:57;;;;;;;19.47;17.37;;;14.60;32.50;;;;;;5099390;27;20422;-51
2023/01/01 00:35:24;;;;;;;20.97;18.40;;;14.60;32.60;;;;;;5105671;28;20603;-54
2023/01/01 00:37:50;;;;;;;21.37;19.20;;;14.60;32.50;;;;;;5095362;28;20211;-54
2023/01/01 00:40:16;;;;;;;18.13;16.30;;;14.60;32.40;;;;;;5105505;27;20447;-54
2023/01/01 00:42:41;;;;;;;16.27;14.90;;;14.60;32.40;;;;;;5105475;27;20426;-50
2023/01/01 00:45:07;;;;;;;15.93;14.27;;;14.60;32.50;;;;;;5102092;27;20220;-53
2023/01/01 00:47:33;;;;;;;14.83;13.00;;;14.60;32.20;;;;;;5103311;27;20656;-52
2023/01/01 00:49:58;;;;;;;15.77;13.53;;;14.70;32.00;;;;;;5102997;27;20415;-50
2023/01/01 00:52:24;;;;;;;13.40;12.50;;;14.70;32.00;;;;;;5101538;27;20169;-57
2023/01/01 00:54:50;;;;;;;11.97;10.97;;;14.70;31.90;;;;;;5103294;27;20184;-57
2023/01/01 00:57:15;;;;;;;13.93;12.67;;;14.70;31.80;;;;;;5103191;28;20186;-56
2023/01/01 00:59:41;;;;;;;13.37;12.33;;;14.70;31.80;;;;;;5103065;27;20177;-58
2023/01/01 01:02:06;;;;;;;12.30;11.40;;;14.70;31.60;;;;;;5102490;27;20638;-58
2023/01/01 01:04:32;;;;;;;14.00;13.00;;;14.70;31.50;;;;;;5102854;27;20192;-56
2023/01/01 01:06:58;;;;;;;12.00;10.90;;;14.70;31.50;;;;;;5101172;28;20185;-57
2023/01/01 01:09:23;;;;;;;11.87;10.97;;;14.70;31.40;;;;;;5092106;27;20185;-57
2023/01/01 01:11:49;;;;;;;11.90;11.17;;;14.70;31.70;;;;;;5102822;28;20166;-56
2023/01/01 01:14:15;;;;;;;12.27;11.30;;;14.70;31.70;;;;;;5102091;27;20645;-57
2023/01/01 01:16:40;;;;;;;12.67;11.50;;;14.60;31.60;;;;;;5121039;27;20181;-57
2023/01/01 01:19:08;;;;;;;12.40;11.30;;;14.60;31.50;;;;;;5100750;28;20242;-57
2023/01/01 01:21:34;;;;;;;13.30;12.23;;;14.60;31.90;;;;;;5102136;27;20625;-58
2023/01/01 01:24:01;;;;;;;12.30;11.43;;;14.60;31.80;;;;;;5098349;27;20415;-57
2023/01/01 01:26:29;;;;;;;12.57;11.50;;;14.60;31.90;;;;;;5105566;28;20263;-57
2023/01/01 01:28:55;;;;;;;13.23;12.00;;;14.60;32.10;;;;;;5098753;28;20455;-58
2023/01/01 01:31:22;;;;;;;13.50;12.30;;;14.60;32.30;;;;;;5105724;28;20411;-58
2023/01/01 01:33:49;;;;;;;13.23;12.10;;;14.60;32.00;;;;;;5094087;28;20432;-58
2023/01/01 01:36:16;;;;;;;13.23;12.23;;;14.60;31.90;;;;;;5104566;28;20431;-58
2023/01/01 01:38:43;;;;;;;13.87;11.97;;;14.60;32.00;;;;;;5098570;28;20505;-58
2023/01/01 01:41:11;;;;;;;12.73;11.60;;;14.70;32.40;;;;;;5119063;28;20493;-58
2023/01/01 01:43:36;;;;;;;12.23;11.30;;;14.70;32.00;;;;;;5101895;28;20446;-58
2023/01/01 01:46:09;;;;;;;12.13;11.23;;;14.80;31.90;;;;;;5093234;28;20408;-58
2023/01/01 01:48:44;;;;;;;13.60;12.50;;;14.80;31.50;;;;;;5100363;28;20695;-58
2023/01/01 01:51:13;;;;;;;12.87;11.77;;;14.90;31.60;;;;;;5100449;28;20783;-57
2023/01/01 01:53:43;;;;;;;12.53;11.30;;;14.80;31.50;;;;;;5101791;28;20913;-58
2023/01/01 01:56:14;;;;;;;12.10;11.27;;;14.80;31.60;;;;;;5117689;28;20403;-57
2023/01/01 01:58:40;;;;;;;13.50;12.20;;;14.80;31.70;;;;;;5102144;28;20407;-58
2023/01/01 02:01:05;;;;;;;13.80;12.37;;;14.80;31.70;;;;;;5100973;28;20423;-58
2023/01/01 02:03:40;;;;;;;13.13;11.90;;;14.80;31.90;;;;;;5120331;28;20489;-58
2023/01/01 02:06:07;;;;;;;13.90;12.60;;;14.80;32.20;;;;;;5106552;28;20998;-58
2023/01/01 02:08:34;;;;;;;14.43;13.33;;;14.70;32.00;;;;;;5099452;28;20645;-57
2023/01/01 02:10:59;;;;;;;15.10;14.00;;;14.70;32.30;;;;;;5100304;27;20412;-57
2023/01/01 02:13:25;;;;;;;13.50;12.60;;;14.70;32.50;;;;;;5104880;28;20502;-58
2023/01/01 02:15:52;;;;;;;14.37;12.97;;;14.60;32.10;;;;;;5106468;27;20176;-58
2023/01/01 02:18:24;;;;;;;14.07;13.00;;;14.50;32.50;;;;;;5105091;27;20177;-58
2023/01/01 02:21:07;;;;;;;14.93;13.47;;;14.40;32.40;;;;;;5105827;27;20422;-58
2023/01/01 02:24:08;;;;;;;12.77;11.90;;;14.50;32.60;;;;;;5096295;27;20909;-58
2023/01/01 02:26:57;;;;;;;13.60;12.40;;;14.50;32.40;;;;;;5106086;27;20467;-59
2023/01/01 02:29:28;;;;;;;11.50;10.80;;;14.50;32.50;;;;;;5097435;28;20415;-58
2023/01/01 02:32:16;;;;;;;13.37;12.13;;;14.50;32.20;;;;;;5108518;27;20425;-59
2023/01/01 02:34:58;;;;;;;11.53;10.63;;;14.60;32.30;;;;;;5102626;28;20420;-59
2023/01/01 02:37:27;;;;;;;11.23;10.17;;;14.50;31.70;;;;;;5096929;28;20407;-59
2023/01/01 02:39:57;;;;;;;9.90;9.40;;;14.50;31.40;;;;;;5109559;27;20415;-59
2023/01/01 02:42:27;;;;;;;14.33;13.33;;;14.50;31.40;;;;;;5098724;28;20506;-58
2023/01/01 02:44:57;;;;;;;12.60;11.63;;;14.50;31.40;;;;;;5106983;27;20527;-58
2023/01/01 02:47:22;;;;;;;11.17;10.30;;;14.50;31.40;;;;;;5090668;28;20568;-59
2023/01/01 02:50:08;;;;;;;12.90;11.73;;;14.50;31.40;;;;;;5098139;28;20500;-58
2023/01/01 02:52:43;;;;;;;11.70;10.70;;;14.50;31.40;;;;;;5105760;27;20264;-59
2023/01/01 02:55:24;;;;;;;12.77;11.70;;;14.50;31.40;;;;;;5122188;27;20438;-59
2023/01/01 03:00:17;;;;;;;11.70;10.70;;;14.50;31.30;;;;;;5106999;27;20910;-59
2023/01/01 03:00:51;;;;;;;11.23;10.23;;;14.50;31.30;;;;;;5122526;27;20510;-58
2023/01/01 03:03:29;;;;;;;10.77;9.97;;;14.50;31.10;;;;;;5103042;27;20442;-58
2023/01/01 03:06:25;;;;;;;11.70;10.73;;;14.60;31.40;;;;;;5108753;27;20417;-59
2023/01/01 03:09:09;;;;;;;13.73;12.70;;;14.60;31.50;;;;;;5101404;28;20506;-58
2023/01/01 03:11:56;;;;;;;12.13;11.33;;;14.60;31.00;;;;;;5097017;28;20545;-59
2023/01/01 03:14:55;;;;;;;14.60;12.23;;;14.50;30.90;;;;;;5109881;28;20410;-58
2023/01/01 03:17:26;;;;;;;11.33;10.43;;;14.50;30.80;;;;;;5104264;27;20828;-58
2023/01/01 03:19:55;;;;;;;12.40;11.40;;;14.50;30.80;;;;;;5102630;28;20922;-59
2023/01/01 03:22:27;;;;;;;12.50;11.60;;;14.50;30.80;;;;;;5104474;27;20914;-58
2023/01/01 03:24:57;;;;;;;11.23;10.47;;;14.50;31.10;;;;;;5102843;28;20437;-59
2023/01/01 03:27:30;;;;;;;12.57;11.33;;;14.60;31.30;;;;;;5101385;28;20451;-58
2023/01/01 03:29:59;;;;;;;11.33;10.20;;;14.60;31.20;;;;;;5081875;28;20404;-60
2023/01/01 03:35:25;;;;;;;12.30;11.40;;;14.50;30.50;;;;;;5122469;27;20418;-58
2023/01/01 03:37:53;;;;;;;11.07;10.23;;;14.60;30.90;;;;;;5098710;28;20813;-53
2023/01/01 03:40:20;;;;;;;11.47;10.73;;;14.50;30.90;;;;;;5108523;27;20408;-54
2023/01/01 03:42:54;;;;;;;11.33;10.50;;;14.50;31.10;;;;;;5100947;28;20751;-55
2023/01/01 03:45:28;;;;;;;10.87;10.00;;;14.50;31.50;;;;;;5105195;27;20435;-52
2023/01/01 03:47:55;;;;;;;11.57;10.60;;;14.50;31.20;;;;;;5121865;27;20469;-55
2023/01/01 03:50:34;;;;;;;11.77;10.97;;;14.50;31.30;;;;;;5101265;28;20893;-54
2023/01/01 03:53:07;;;;;;;11.70;11.00;;;14.50;31.10;;;;;;5108334;27;20419;-55
2023/01/01 03:55:35;;;;;;;11.67;10.90;;;14.50;31.50;;;;;;5100699;28;20416;-55
2023/01/01 03:58:19;;;;;;;10.93;10.23;;;14.50;31.40;;;;;;5106343;27;20415;-58
2023/01/01 04:00:52;;;;;;;11.47;10.77;;;14.50;31.50;;;;;;5101202;27;20550;-58
2023/01/01 04:03:24;;;;;;;11.37;10.47;;;14.50;31.70;;;;;;5101720;27;20438;-58
2023/01/01 04:05:50;;;;;;;12.40;11.60;;;14.50;32.00;;;;;;5106452;27;20415;-59
2023/01/01 04:08:16;;;;;;;11.97;11.00;;;14.30;32.60;;;;;;5119964;27;20460;-58
2023/01/01 04:10:46;;;;;;;12.07;11.17;;;14.20;32.40;;;;;;5101256;27;20946;-58
2023/01/01 04:13:12;;;;;;;11.10;10.30;;;14.10;32.90;;;;;;5102769;27;20408;-58
2023/01/01 04:15:38;;;;;;;11.30;10.43;;;14.10;32.80;;;;;;5122887;27;20411;-58
2023/01/01 04:18:04;;;;;;;12.03;11.33;;;14.10;32.70;;;;;;5101494;27;20464;-52
2023/01/01 04:20:30;;;;;;;12.60;11.60;;;14.10;32.70;;;;;;5118649;27;20177;-53
2023/01/01 04:22:57;;;;;;;13.93;12.67;;;14.10;32.60;;;;;;5096177;28;20411;-54
2023/01/01 04:25:23;;;;;;;12.50;11.43;;;14.10;32.70;;;;;;5089241;27;20425;-54
2023/01/01 04:27:49;;;;;;;11.90;11.00;;;14.10;33.10;;;;;;5104566;28;20543;-53
2023/01/01 04:30:14;;;;;;;11.00;10.30;;;14.00;33.40;;;;;;5102129;27;20178;-54
2023/01/01 04:32:41;;;;;;;10.20;9.60;;;13.90;34.10;;;;;;5103331;28;20207;-52
2023/01/01 04:35:08;;;;;;;11.80;11.10;;;13.90;33.60;;;;;;5108453;27;20173;-53
2023/01/01 04:37:37;;;;;;;10.37;9.67;;;13.90;34.00;;;;;;5100137;28;20424;-51
2023/01/01 04:40:04;;;;;;;10.30;9.67;;;13.80;34.00;;;;;;5125764;27;20415;-51
2023/01/01 04:42:30;;;;;;;12.97;12.07;;;13.70;33.90;;;;;;5100997;28;20408;-54
2023/01/01 04:44:55;;;;;;;9.23;8.53;;;13.80;34.40;;;;;;5105570;27;20459;-54
2023/01/01 04:47:21;;;;;;;9.60;9.10;;;13.80;33.70;;;;;;5103215;27;20173;-54
2023/01/01 04:49:47;;;;;;;9.87;9.27;;;13.90;33.60;;;;;;5104369;27;20208;-53
2023/01/01 04:52:13;;;;;;;10.20;9.60;;;13.90;33.50;;;;;;5101711;28;20431;-53
2023/01/01 04:54:38;;;;;;;9.20;8.70;;;14.00;33.60;;;;;;5104338;27;20173;-54
2023/01/01 04:57:04;;;;;;;9.80;9.30;;;14.20;33.10;;;;;;5104190;28;20919;-54
2023/01/01 04:59:30;;;;;;;9.57;8.87;;;14.30;32.60;;;;;;5104461;27;20177;-57
2023/01/01 05:01:57;;;;;;;9.90;9.27;;;14.40;32.30;;;;;;5102518;28;20427;-57
2023/01/01 05:04:22;;;;;;;10.20;9.40;;;14.50;32.00;;;;;;5104654;27;20436;-57
2023/01/01 05:06:48;;;;;;;10.23;9.63;;;14.40;31.70;;;;;;5104576;28;20427;-51
2023/01/01 05:09:13;;;;;;;9.13;8.63;;;14.30;31.80;;;;;;5104275;27;20205;-52
2023/01/01 05:11:39;;;;;;;9.80;9.10;;;14.30;31.90;;;;;;5104524;28;20174;-55
2023/01/01 05:14:05;;;;;;;9.83;9.23;;;14.20;32.40;;;;;;5109067;27;20267;-55
2023/01/01 05:16:34;;;;;;;9.67;9.20;;;14.10;32.70;;;;;;5101795;28;20645;-55
2023/01/01 05:19:00;;;;;;;10.50;9.83;;;14.00;32.80;;;;;;5108174;27;20449;-52
2023/01/01 05:21:30;;;;;;;10.77;10.00;;;13.90;33.40;;;;;;5101184;28;21112;-54
2023/01/01 05:23:58;;;;;;;9.53;9.03;;;13.80;33.60;;;;;;5125753;27;20411;-55
2023/01/01 05:26:30;;;;;;;8.63;8.23;;;13.90;33.50;;;;;;5102559;28;20415;-55
2023/01/01 05:28:57;;;;;;;9.60;9.10;;;13.80;33.30;;;;;;5105062;28;20542;-54
2023/01/01 05:31:25;;;;;;;9.30;8.80;;;13.80;33.40;;;;;;5103239;28;20446;-55
2023/01/01 05:33:51;;;;;;;9.27;8.77;;;13.90;33.30;;;;;;5105331;28;20423;-55
2023/01/01 05:36:20;;;;;;;10.53;9.83;;;13.80;33.20;;;;;;5104556;28;20447;-54
2023/01/01 05:38:46;;;;;;;11.77;10.97;;;13.90;33.50;;;;;;5105361;28;20418;-51
2023/01/01 05:41:14;;;;;;;9.67;8.80;;;13.90;33.40;;;;;;5103947;28;20935;-50
2023/01/01 05:43:40;;;;;;;9.20;8.70;;;13.90;32.80;;;;;;5106582;27;20204;-54
2023/01/01 05:46:09;;;;;;;9.27;8.83;;;13.90;33.10;;;;;;5125453;27;20419;-54
2023/01/01 05:48:36;;;;;;;9.87;9.27;;;13.80;33.00;;;;;;5111571;28;20561;-55
2023/01/01 05:51:06;;;;;;;9.23;8.63;;;13.90;32.90;;;;;;5106121;28;20440;-54
2023/01/01 05:53:32;;;;;;;9.53;9.03;;;13.90;33.20;;;;;;5111108;28;20510;-55
2023/01/01 05:55:59;;;;;;;9.37;8.87;;;14.00;32.70;;;;;;5101254;28;20408;-54
2023/01/01 05:58:26;;;;;;;9.47;8.97;;;14.00;32.50;;;;;;5093590;27;20467;-53
2023/01/01 06:00:52;;;;;;;9.30;8.80;;;14.00;32.40;;;;;;5114910;27;20809;-53
2023/01/01 06:03:17;;;;;;;8.57;7.97;;;13.90;32.70;;;;;;5106542;27;20422;-52
2023/01/01 06:05:43;;;;;;;9.20;8.80;;;13.90;32.70;;;;;;5110427;27;20760;-51
2023/01/01 06:08:09;;;;;;;9.77;9.17;;;13.90;32.60;;;;;;5107654;27;20205;-53
2023/01/01 06:10:35;;;;;;;8.70;8.03;;;13.90;32.80;;;;;;5108259;27;20184;-54
2023/01/01 06:13:00;;;;;;;9.97;9.17;;;13.80;33.70;;;;;;5107835;27;20297;-58
2023/01/01 06:15:26;;;;;;;9.20;8.70;;;13.70;33.20;;;;;;5109297;27;20205;-57
2023/01/01 06:17:52;;;;;;;8.97;8.20;;;13.70;33.30;;;;;;5108292;27;20189;-58
2023/01/01 06:20:18;;;;;;;10.17;9.40;;;13.70;33.20;;;;;;5108251;27;20820;-58
2023/01/01 06:22:44;;;;;;;9.60;8.80;;;13.70;33.50;;;;;;5107881;27;20201;-58
2023/01/01 06:25:10;;;;;;;8.33;7.93;;;13.70;33.50;;;;;;5107085;27;20178;-58
2023/01/01 06:27:36;;;;;;;8.23;7.73;;;13.70;33.30;;;;;;5111150;28;20463;-58
2023/01/01 06:30:03;;;;;;;9.00;8.50;;;13.70;33.40;;;;;;5105926;27;20415;-54
2023/01/01 06:32:29;;;;;;;8.20;7.70;;;13.70;33.40;;;;;;5110852;28;20193;-52
2023/01/01 06:34:55;;;;;;;9.00;8.50;;;13.70;33.80;;;;;;5088128;28;20416;-53
2023/01/01 06:37:20;;;;;;;8.53;7.93;;;13.60;33.60;;;;;;5110447;27;20193;-52
2023/01/01 06:39:46;;;;;;;8.67;8.20;;;13.60;33.50;;;;;;5110971;27;20272;-53
2023/01/01 06:42:12;;;;;;;9.10;8.70;;;13.60;33.70;;;;;;5106170;27;20263;-52
2023/01/01 06:44:37;;;;;;;8.43;8.00;;;13.60;34.00;;;;;;5108653;27;20221;-52
2023/01/01 06:47:03;;;;;;;9.03;8.43;;;13.50;33.80;;;;;;5100352;27;20182;-57
2023/01/01 06:49:31;;;;;;;9.00;8.50;;;13.50;34.20;;;;;;5105178;27;20746;-57
2023/01/01 06:51:57;;;;;;;9.43;8.83;;;13.50;34.20;;;;;;5104456;28;20174;-58
2023/01/01 06:54:23;;;;;;;10.03;8.67;;;13.50;35.20;;;;;;5105997;28;20454;-59
2023/01/01 06:56:48;;;;;;;9.40;8.80;;;13.50;34.20;;;;;;5097439;28;20234;-57
2023/01/01 06:59:16;;;;;;;8.93;8.40;;;13.50;33.70;;;;;;5111510;27;20213;-57
2023/01/01 07:01:41;;;;;;;9.50;8.80;;;13.50;34.00;;;;;;5104358;28;20178;-56
2023/01/01 07:04:11;;;;;;;9.43;8.93;;;13.50;34.00;;;;;;5105944;27;20907;-58
2023/01/01 07:06:37;;;;;;;8.10;7.70;;;13.50;34.10;;;;;;5105068;27;20178;-57
2023/01/01 07:09:04;;;;;;;9.97;9.37;;;13.50;33.90;;;;;;5105117;27;20870;-58
2023/01/01 07:11:30;;;;;;;8.63;8.13;;;13.50;34.10;;;;;;5102923;28;20908;-57
2023/01/01 07:13:56;;;;;;;10.87;9.97;;;13.50;34.10;;;;;;5102885;28;20423;-53
2023/01/01 07:16:23;;;;;;;8.83;8.33;;;13.50;34.00;;;;;;5088614;28;20643;-52
2023/01/01 07:18:49;;;;;;;10.13;9.23;;;13.40;33.80;;;;;;5097444;27;20676;-51
2023/01/01 07:21:25;;;;;;;8.70;8.20;;;13.40;33.70;;;;;;5106627;27;20467;-52
2023/01/01 07:23:51;;;;;;;9.97;9.30;;;13.40;33.80;;;;;;5107990;28;20415;-53
2023/01/01 07:26:16;;;;;;;9.97;9.20;;;13.40;33.70;;;;;;5107946;27;20493;-58
2023/01/01 07:28:42;;;;;;;9.83;9.30;;;13.40;33.80;;;;;;5101199;28;20209;-57
2023/01/01 07:31:09;;;;;;;9.30;8.80;;;13.40;33.70;;;;;;5094186;27;20217;-57
2023/01/01 07:33:35;;;;;;;9.43;8.93;;;13.40;33.70;;;;;;5102654;28;20178;-58
2023/01/01 07:36:00;;;;;;;9.73;9.13;;;13.40;33.20;;;;;;5109835;27;20415;-58
2023/01/01 07:38:26;;;;;;;9.07;8.60;;;13.50;33.50;;;;;;5106882;27;20181;-58
2023/01/01 07:40:52;;;;;;;9.50;9.10;;;13.40;33.30;;;;;;5102910;28;20181;-58
2023/01/01 07:43:17;;;;;;;9.43;8.90;;;13.40;33.20;;;;;;5104133;27;20200;-59
2023/01/01 07:45:43;;;;;;;9.60;9.10;;;13.40;33.40;;;;;;5106667;27;20560;-57
2023/01/01 07:48:13;;;;;;;9.60;9.10;;;13.40;33.40;;;;;;5103580;27;20205;-59
2023/01/01 07:50:39;;;;;;;9.67;9.07;;;13.40;33.20;;;;;;5103113;27;20173;-56
2023/01/01 07:53:05;;;;;;;8.70;8.20;;;13.40;33.00;;;;;;5095619;28;20425;-57
2023/01/01 07:55:32;;;;;;;10.13;9.50;;;13.50;32.70;;;;;;5109141;28;20430;-57
2023/01/01 07:57:58;;;;;;;8.50;8.00;;;13.50;32.80;;;;;;5099620;27;20184;-57
2023/01/01 08:00:24;;;;;;;8.67;8.27;;;13.50;32.40;;;;;;5105117;27;20899;-57
2023/01/01 08:02:50;;;;;;;8.80;8.37;;;13.50;32.40;;;;;;5108912;27;20422;-57
2023/01/01 08:05:16;;;;;;;8.53;8.13;;;13.60;32.40;;;;;;5103829;27;20790;-58
2023/01/01 08:07:49;;;;;;;9.30;8.77;;;13.60;32.10;;;;;;5124713;27;20455;-57
2023/01/01 08:10:17;;;;;;;8.00;7.60;;;13.70;31.50;;;;;;5103460;27;20281;-57
2023/01/01 08:12:43;;;;;;;9.30;8.77;;;13.70;31.30;;;;;;5101838;28;20404;-57
2023/01/01 08:15:09;;;;;;;8.70;8.30;;;13.80;31.50;;;;;;5108843;27;20812;-57
2023/01/01 08:17:35;;;;;;;9.13;8.53;;;13.80;31.10;;;;;;5107194;27;20848;-57
2023/01/01 08:20:02;;;;;;;8.83;8.33;;;13.80;30.80;;;;;;5096167;28;20428;-57
2023/01/01 08:22:27;;;;;;;9.03;8.53;;;13.90;31.50;;;;;;5100252;27;20937;-62
2023/01/01 08:24:53;;;;;;;8.77;8.33;;;13.90;31.20;;;;;;5096921;28;20424;-55
2023/01/01 08:27:19;;;;;;;8.23;7.83;;;13.90;30.80;;;;;;5094795;27;20300;-55
2023/01/01 08:29:44;;;;;;;7.83;7.43;;;13.90;30.90;;;;;;5100011;27;20174;-55
2023/01/01 08:32:12;;;;;;;8.67;8.17;;;13.90;30.90;;;;;;5103566;27;20264;-55
2023/01/01 08:34:37;;;;;;;8.77;7.97;;;13.90;31.20;;;;;;5107745;28;20201;-55
2023/01/01 08:37:03;;;;;;;8.87;8.30;;;14.00;31.90;;;;;;5102896;27;20455;-55
2023/01/01 08:39:29;;;;;;;8.90;8.40;;;14.00;30.90;;;;;;5108065;28;20209;-54
2023/01/01 08:41:55;;;;;;;9.37;8.77;;;14.00;30.90;;;;;;5101639;28;20416;-53
2023/01/01 08:44:20;;;;;;;8.67;8.20;;;14.00;31.00;;;;;;5107267;27;20550;-57
2023/01/01 08:46:46;;;;;;;8.70;8.20;;;14.00;31.10;;;;;;5100576;28;20269;-57
2023/01/01 08:49:12;;;;;;;9.00;8.60;;;14.00;31.20;;;;;;5093624;28;20316;-56
2023/01/01 08:51:37;;;;;;;9.17;8.67;;;13.90;30.70;;;;;;5094044;28;20186;-57
2023/01/01 08:54:03;;;;;;;9.40;8.80;;;13.90;31.00;;;;;;5095256;27;20177;-57
2023/01/01 08:56:29;;;;;;;8.97;8.57;;;13.90;30.90;;;;;;5094314;28;20223;-56
2023/01/01 08:58:55;;;;;;;9.10;8.70;;;13.90;30.70;;;;;;5107587;27;20173;-57
2023/01/01 09:01:22;;;;;;;8.67;8.23;;;13.90;30.30;;;;;;5097621;27;20313;-58
2023/01/01 09:03:48;;;;;;;9.43;8.80;;;14.00;30.50;;;;;;5103877;28;20205;-57
2023/01/01 09:06:14;;;;;;;8.97;8.37;;;14.10;30.00;;;;;;5092655;27;20971;-57
2023/01/01 09:08:39;;;;;;;8.10;7.60;;;14.20;29.80;;;;;;5093605;28;20609;-56
2023/01/01 09:11:05;;;;;;;8.50;8.10;;;14.30;29.60;;;;;;5103981;27;20231;-57
2023/01/01 09:13:33;;;;;;;9.50;8.87;;;14.30;29.20;;;;;;5103086;27;20211;-57
2023/01/01 09:15:58;;;;;;;9.27;8.87;;;14.30;29.30;;;;;;5104475;27;20415;-57
2023/01/01 09:18:24;;;;;;;9.20;8.60;;;14.30;29.30;;;;;;5104726;28;20925;-57
2023/01/01 09:20:50;;;;;;;9.00;8.40;;;14.30;29.00;;;;;;5102189;28;20589;-57
2023/01/01 09:23:15;;;;;;;10.00;9.40;;;14.40;28.90;;;;;;5104149;28;20181;-58
2023/01/01 09:25:41;;;;;;;8.83;8.23;;;14.40;28.70;;;;;;5094397;28;20269;-55
2023/01/01 09:28:12;;;;;;;9.83;9.20;;;14.40;28.50;;;;;;5097145;28;20284;-55
2023/01/01 09:30:38;;;;;;;9.10;8.60;;;14.50;28.60;;;;;;5106466;28;20180;-55
2023/01/01 09:33:04;;;;;;;8.80;8.40;;;14.50;28.60;;;;;;5086391;28;20425;-55
2023/01/01 09:35:30;;;;;;;8.90;8.30;;;14.50;28.30;;;;;;5087177;28;20185;-54
2023/01/01 09:37:56;;;;;;;10.33;9.37;;;14.60;28.10;;;;;;5086086;28;20231;-55
2023/01/01 09:40:35;;;;;;;8.20;7.80;;;14.60;28.20;;;;;;5088373;28;20429;-54
2023/01/01 09:43:23;;;;;;;8.87;8.37;;;14.60;28.30;;;;;;5087419;28;20465;-53
2023/01/01 09:46:00;;;;;;;8.30;8.00;;;14.60;28.20;;;;;;5091984;28;20728;-51
2023/01/01 09:48:29;;;;;;;7.63;7.13;;;14.60;28.50;;;;;;5096538;28;20462;-53
2023/01/01 09:50:59;;;;;;;8.53;7.70;;;14.60;28.20;;;;;;5096284;28;20414;-51
2023/01/01 09:53:27;;;;;;;7.73;7.33;;;14.60;28.10;;;;;;5095592;28;20426;-53
2023/01/01 09:56:01;;;;;;;9.00;8.60;;;14.70;28.40;;;;;;5100796;28;20422;-48
2023/01/01 09:58:32;;;;;;;8.50;7.90;;;14.70;28.00;;;;;;5089993;28;20435;-55
2023/01/01 10:01:25;;;;;;;8.43;8.03;;;14.80;28.20;;;;;;5083187;28;20924;-59
2023/01/01 10:04:19;;;;;;;9.20;8.60;;;14.80;27.70;;;;;;5081281;28;20433;-59
2023/01/01 10:07:09;;;;;;;8.60;8.30;;;14.80;28.40;;;;;;5086032;28;20846;-59
2023/01/01 10:09:41;;;;;;;9.17;8.67;;;14.90;28.30;;;;;;5091428;28;20465;-59
2023/01/01 10:12:26;;;;;;;9.00;8.30;;;14.90;28.00;;;;;;5102812;28;20459;-59
2023/01/01 10:15:01;;;;;;;9.20;8.60;;;14.90;27.80;;;;;;5103135;28;20922;-59
2023/01/01 10:17:38;;;;;;;8.73;8.33;;;14.90;28.20;;;;;;5091259;28;20775;-59
2023/01/01 10:20:38;;;;;;;8.57;8.03;;;15.00;28.70;;;;;;5095290;28;20907;-59
2023/01/01 10:23:23;;;;;;;8.93;8.43;;;15.00;29.00;;;;;;5103527;28;20645;-59
2023/01/01 10:25:48;;;;;;;8.87;8.37;;;15.10;29.00;;;;;;5104887;28;20973;-59
2023/01/01 10:28:24;;;;;;;9.40;8.90;;;15.10;28.40;;;;;;5104365;28;20554;-59
2023/01/01 10:30:57;;;;;;;8.30;7.97;;;15.10;27.70;;;;;;5115310;27;20172;-59
2023/01/01 10:33:23;;;;;;;8.73;8.33;;;15.20;27.00;;;;;;5116617;27;20450;-59
2023/01/01 10:35:55;;;;;;;9.43;8.93;;;15.20;27.10;;;;;;5117152;27;20407;-59
2023/01/01 10:38:25;;;;;;;8.40;8.00;;;15.30;26.80;;;;;;5116626;27;20488;-59
2023/01/01 10:41:02;;;;;;;8.13;7.63;;;15.30;26.80;;;;;;5116162;27;20831;-59
2023/01/01 10:43:27;;;;;;;8.40;8.00;;;15.40;26.90;;;;;;5116433;27;20513;-59
2023/01/01 10:45:54;;;;;;;8.20;7.70;;;15.40;26.80;;;;;;5116607;27;21014;-56
2023/01/01 10:48:21;;;;;;;8.37;7.80;;;15.40;26.90;;;;;;5116850;27;20296;-56
2023/01/01 10:50:56;;;;;;;7.60;7.20;;;15.50;26.90;;;;;;5116400;27;20422;-56
2023/01/01 10:54:03;;;;;;;8.57;8.07;;;15.50;26.70;;;;;;5116488;27;20509;-53
2023/01/01 10:56:40;;;;;;;8.27;7.87;;;15.50;26.90;;;;;;5098916;27;20464;-55
2023/01/01 10:59:31;;;;;;;8.53;8.10;;;15.60;26.30;;;;;;5116638;27;20414;-55
2023/01/01 11:02:16;;;;;;;7.97;7.47;;;15.60;26.50;;;;;;5116099;27;20921;-55
2023/01/01 11:04:42;;;;;;;7.80;7.50;;;15.60;26.40;;;;;;5116337;27;20472;-55
2023/01/01 11:07:08;;;;;;;7.90;7.43;;;15.70;27.10;;;;;;5116368;27;20419;-56
2023/01/01 11:09:37;;;;;;;7.67;7.13;;;15.60;26.60;;;;;;5115630;27;20212;-54
2023/01/01 11:12:06;;;;;;;7.10;6.70;;;15.70;26.30;;;;;;5116261;27;20248;-56
2023/01/01 11:14:31;;;;;;;7.17;6.77;;;15.80;26.10;;;;;;5116109;27;20422;-56
2023/01/01 11:16:58;;;;;;;6.63;6.33;;;15.80;25.90;;;;;;5115755;27;20414;-54
2023/01/01 11:19:33;;;;;;;7.70;6.97;;;15.80;25.80;;;;;;5116514;27;20181;-55
2023/01/01 11:22:00;;;;;;;7.20;6.70;;;15.90;26.20;;;;;;5116107;27;20838;-56
2023/01/01 11:24:28;;;;;;;6.70;6.40;;;15.90;25.70;;;;;;5115954;27;20426;-59
2023/01/01 11:27:18;;;;;;;7.07;6.70;;;16.00;25.50;;;;;;5101228;28;20459;-59
2023/01/01 11:29:43;;;;;;;6.73;6.43;;;16.00;25.30;;;;;;5076140;28;20511;-60
2023/01/01 11:32:18;;;;;;;7.90;7.20;;;16.00;25.10;;;;;;5095255;28;20499;-59
2023/01/01 11:34:45;;;;;;;7.10;6.80;;;16.10;25.00;;;;;;5093741;28;20266;-59
2023/01/01 11:37:19;;;;;;;7.00;6.67;;;16.10;24.90;;;;;;5095591;28;21419;-60
2023/01/01 11:39:51;;;;;;;7.67;7.27;;;16.20;24.60;;;;;;5093759;28;20514;-59
2023/01/01 11:42:20;;;;;;;7.20;6.80;;;16.30;24.40;;;;;;5094222;28;20501;-59
2023/01/01 11:44:59;;;;;;;7.33;7.00;;;16.30;24.20;;;;;;5089526;28;20448;-59
2023/01/01 11:47:36;;;;;;;7.83;7.23;;;16.30;24.20;;;;;;5086608;28;20412;-59
2023/01/01 11:50:07;;;;;;;7.70;7.20;;;16.40;24.50;;;;;;5086807;28;20415;-59
2023/01/01 11:52:39;;;;;;;7.20;6.67;;;16.40;24.60;;;;;;5090285;28;20420;-60
2023/01/01 11:55:37;;;;;;;7.17;6.80;;;16.40;24.40;;;;;;5083996;28;20424;-58
2023/01/01 11:58:26;;;;;;;7.60;7.20;;;16.40;24.20;;;;;;5090690;28;20423;-58
2023/01/01 12:00:59;;;;;;;8.27;7.83;;;16.40;24.20;;;;;;5092127;28;20434;-58
2023/01/01 12:03:32;;;;;;;8.07;7.67;;;16.40;24.40;;;;;;5094616;28;20537;-58
2023/01/01 12:06:07;;;;;;;7.77;7.40;;;16.40;23.60;;;;;;5095407;28;20431;-58
2023/01/01 12:08:41;;;;;;;7.80;7.40;;;16.40;23.80;;;;;;5094086;28;20459;-58
2023/01/01 12:11:34;;;;;;;7.57;7.17;;;16.50;23.70;;;;;;5094754;28;20483;-59
2023/01/01 12:14:31;;;;;;;7.50;7.00;;;16.50;23.60;;;;;;5094809;28;20449;-52
2023/01/01 12:17:15;;;;;;;7.47;6.93;;;16.50;23.80;;;;;;5092539;28;20408;-55
2023/01/01 12:19:45;;;;;;;7.07;6.67;;;16.50;24.80;;;;;;5092682;28;20408;-55
2023/01/01 12:22:16;;;;;;;7.73;7.23;;;16.50;24.50;;;;;;5094142;28;20419;-56
2023/01/01 12:24:43;;;;;;;7.23;6.93;;;16.50;24.30;;;;;;5093590;28;20438;-55
2023/01/01 12:27:17;;;;;;;6.70;6.40;;;16.40;23.90;;;;;;5093093;28;20420;-55
2023/01/01 12:30:01;;;;;;;8.47;7.43;;;16.50;23.40;;;;;;5093058;28;20851;-54
2023/01/01 12:32:52;;;;;;;7.07;6.63;;;16.50;23.50;;;;;;5093751;28;20873;-53
2023/01/01 12:35:28;;;;;;;8.43;7.70;;;16.50;24.00;;;;;;5092593;28;20420;-54
2023/01/01 12:38:26;;;;;;;8.17;7.63;;;16.50;24.70;;;;;;5110022;28;20949;-54
2023/01/01 12:41:03;;;;;;;7.10;6.47;;;16.50;24.90;;;;;;5058361;28;20436;-54
2023/01/01 12:44:00;;;;;;;8.60;7.90;;;16.40;25.10;;;;;;5092012;28;20436;-55
2023/01/01 12:46:35;;;;;;;6.80;6.40;;;16.40;25.30;;;;;;5093235;28;20461;-56
2023/01/01 12:49:29;;;;;;;7.27;6.60;;;16.40;24.70;;;;;;5092539;28;20864;-54
2023/01/01 12:52:06;;;;;;;7.00;6.40;;;16.40;24.50;;;;;;5090219;28;20629;-56
2023/01/01 12:54:51;;;;;;;5.77;5.57;;;16.50;23.30;;;;;;5089739;28;20404;-55
2023/01/01 12:57:19;;;;;;;6.80;6.50;;;16.60;22.70;;;;;;5094931;27;20439;-56